sensor_id;sensor_type;location;lat;lon;timestamp;P1;durP1;ratioP1;P2;durP2;ratioP2
17864;SDS011;9058;52.018;4.202;2023-09-07T00:00:30;11.75;;;9.63;;
17864;SDS011;9058;52.018;4.202;2023-09-07T00:02:57;11.32;;;10.23;;
17864;SDS011;9058;52.018;4.202;2023-09-07T00:05:26;13.85;;;10.00;;
17864;SDS011;9058;52.018;4.202;2023-09-07T00:07:53;11.55;;;10.43;;
17864;SDS011;9058;52.018;4.202;2023-09-07T00:10:21;11.73;;;10.63;;
17864;SDS011;9058;52.018;4.202;2023-09-07T00:12:47;13.40;;;11.65;;
17864;SDS011;9058;52.018;4.202;2023-09-07T00:15:13;12.40;;;11.13;;
17864;SDS011;9058;52.018;4.202;2023-09-07T00:17:40;12.70;;;11.48;;
17864;SDS011;9058;52.018;4.202;2023-09-07T00:20:06;15.05;;;11.48;;
17864;SDS011;9058;52.018;4.202;2023-09-07T00:22:38;12.60;;;11.30;;
17864;SDS011;9058;52.018;4.202;2023-09-07T00:25:04;12.45;;;11.15;;
17864;SDS011;9058;52.018;4.202;2023-09-07T00:27:32;11.95;;;10.35;;
17864;SDS011;9058;52.018;4.202;2023-09-07T00:29:58;13.10;;;11.82;;
17864;SDS011;9058;52.018;4.202;2023-09-07T00:32:25;12.80;;;11.57;;
17864;SDS011;9058;52.018;4.202;2023-09-07T00:34:52;12.77;;;10.88;;
17864;SDS011;9058;52.018;4.202;2023-09-07T00:37:19;11.65;;;10.45;;
17864;SDS011;9058;52.018;4.202;2023-09-07T00:39:47;15.57;;;11.15;;
17864;SDS011;9058;52.018;4.202;2023-09-07T00:42:13;12.52;;;11.23;;
17864;SDS011;9058;52.018;4.202;2023-09-07T00:44:39;12.30;;;10.68;;
17864;SDS011;9058;52.018;4.202;2023-09-07T00:47:06;12.68;;;11.02;;
17864;SDS011;9058;52.018;4.202;2023-09-07T00:49:32;12.80;;;11.00;;
17864;SDS011;9058;52.018;4.202;2023-09-07T00:51:59;12.75;;;10.85;;
17864;SDS011;9058;52.018;4.202;2023-09-07T00:54:25;15.38;;;12.02;;
17864;SDS011;9058;52.018;4.202;2023-09-07T00:56:53;13.65;;;11.43;;
17864;SDS011;9058;52.018;4.202;2023-09-07T00:59:20;17.08;;;10.75;;
17864;SDS011;9058;52.018;4.202;2023-09-07T01:01:46;15.27;;;10.75;;
17864;SDS011;9058;52.018;4.202;2023-09-07T01:04:14;17.73;;;11.55;;
17864;SDS011;9058;52.018;4.202;2023-09-07T01:06:42;12.07;;;10.82;;
17864;SDS011;9058;52.018;4.202;2023-09-07T01:09:11;13.50;;;11.27;;
17864;SDS011;9058;52.018;4.202;2023-09-07T01:11:42;12.70;;;11.00;;
17864;SDS011;9058;52.018;4.202;2023-09-07T01:14:11;13.18;;;11.27;;
17864;SDS011;9058;52.018;4.202;2023-09-07T01:16:38;12.85;;;11.60;;
17864;SDS011;9058;52.018;4.202;2023-09-07T01:19:05;12.15;;;11.02;;
17864;SDS011;9058;52.018;4.202;2023-09-07T01:21:33;12.70;;;11.43;;
17864;SDS011;9058;52.018;4.202;2023-09-07T01:24:00;12.70;;;11.32;;
17864;SDS011;9058;52.018;4.202;2023-09-07T01:26:29;13.30;;;11.10;;
17864;SDS011;9058;52.018;4.202;2023-09-07T01:28:55;13.80;;;12.27;;
17864;SDS011;9058;52.018;4.202;2023-09-07T01:31:22;13.43;;;12.05;;
17864;SDS011;9058;52.018;4.202;2023-09-07T01:33:48;13.52;;;11.50;;
17864;SDS011;9058;52.018;4.202;2023-09-07T01:36:15;13.68;;;12.23;;
17864;SDS011;9058;52.018;4.202;2023-09-07T01:38:42;15.40;;;12.35;;
17864;SDS011;9058;52.018;4.202;2023-09-07T01:41:09;15.43;;;13.32;;
17864;SDS011;9058;52.018;4.202;2023-09-07T01:43:35;15.40;;;13.90;;
17864;SDS011;9058;52.018;4.202;2023-09-07T01:46:02;14.90;;;13.40;;
17864;SDS011;9058;52.018;4.202;2023-09-07T01:48:28;16.25;;;14.18;;
17864;SDS011;9058;52.018;4.202;2023-09-07T01:50:55;19.10;;;14.15;;
17864;SDS011;9058;52.018;4.202;2023-09-07T01:53:22;16.67;;;14.70;;
17864;SDS011;9058;52.018;4.202;2023-09-07T01:55:53;15.80;;;14.20;;
17864;SDS011;9058;52.018;4.202;2023-09-07T01:58:20;15.20;;;13.68;;
17864;SDS011;9058;52.018;4.202;2023-09-07T02:00:46;16.08;;;14.32;;
17864;SDS011;9058;52.018;4.202;2023-09-07T02:03:13;16.23;;;14.48;;
17864;SDS011;9058;52.018;4.202;2023-09-07T02:05:39;16.80;;;15.10;;
17864;SDS011;9058;52.018;4.202;2023-09-07T02:08:07;19.58;;;14.93;;
17864;SDS011;9058;52.018;4.202;2023-09-07T02:10:33;16.67;;;14.73;;
17864;SDS011;9058;52.018;4.202;2023-09-07T02:13:01;16.45;;;14.75;;
17864;SDS011;9058;52.018;4.202;2023-09-07T02:15:28;18.17;;;16.23;;
17864;SDS011;9058;52.018;4.202;2023-09-07T02:17:55;16.23;;;14.52;;
17864;SDS011;9058;52.018;4.202;2023-09-07T02:20:21;17.13;;;15.32;;
17864;SDS011;9058;52.018;4.202;2023-09-07T02:22:48;18.20;;;14.93;;
17864;SDS011;9058;52.018;4.202;2023-09-07T02:25:14;17.83;;;15.75;;
17864;SDS011;9058;52.018;4.202;2023-09-07T02:27:41;16.65;;;15.05;;
17864;SDS011;9058;52.018;4.202;2023-09-07T02:30:09;18.58;;;15.88;;
17864;SDS011;9058;52.018;4.202;2023-09-07T02:32:36;21.58;;;16.77;;
17864;SDS011;9058;52.018;4.202;2023-09-07T02:38:05;17.65;;;15.90;;
17864;SDS011;9058;52.018;4.202;2023-09-07T02:40:32;18.95;;;16.45;;
17864;SDS011;9058;52.018;4.202;2023-09-07T02:42:58;19.23;;;17.23;;
17864;SDS011;9058;52.018;4.202;2023-09-07T02:45:26;18.83;;;16.88;;
17864;SDS011;9058;52.018;4.202;2023-09-07T02:47:52;20.83;;;16.15;;
17864;SDS011;9058;52.018;4.202;2023-09-07T02:50:19;18.70;;;16.77;;
17864;SDS011;9058;52.018;4.202;2023-09-07T02:52:46;19.85;;;17.83;;
17864;SDS011;9058;52.018;4.202;2023-09-07T02:55:13;21.02;;;17.70;;
17864;SDS011;9058;52.018;4.202;2023-09-07T02:57:40;19.10;;;17.05;;
17864;SDS011;9058;52.018;4.202;2023-09-07T03:00:07;20.05;;;17.67;;
17864;SDS011;9058;52.018;4.202;2023-09-07T03:02:37;21.08;;;18.30;;
17864;SDS011;9058;52.018;4.202;2023-09-07T03:05:03;19.85;;;17.38;;
17864;SDS011;9058;52.018;4.202;2023-09-07T03:07:32;19.13;;;17.05;;
17864;SDS011;9058;52.018;4.202;2023-09-07T03:10:00;19.70;;;17.58;;
17864;SDS011;9058;52.018;4.202;2023-09-07T03:12:27;19.50;;;17.60;;
17864;SDS011;9058;52.018;4.202;2023-09-07T03:14:56;19.10;;;17.02;;
17864;SDS011;9058;52.018;4.202;2023-09-07T03:17:23;20.20;;;17.92;;
17864;SDS011;9058;52.018;4.202;2023-09-07T03:19:50;19.38;;;17.38;;
17864;SDS011;9058;52.018;4.202;2023-09-07T03:22:17;19.25;;;16.98;;
17864;SDS011;9058;52.018;4.202;2023-09-07T03:24:43;20.65;;;18.05;;
17864;SDS011;9058;52.018;4.202;2023-09-07T03:27:09;20.65;;;17.05;;
17864;SDS011;9058;52.018;4.202;2023-09-07T03:29:37;19.83;;;17.75;;
17864;SDS011;9058;52.018;4.202;2023-09-07T03:32:03;18.60;;;16.20;;
17864;SDS011;9058;52.018;4.202;2023-09-07T03:34:31;18.60;;;16.83;;
17864;SDS011;9058;52.018;4.202;2023-09-07T03:37:00;19.20;;;17.33;;
17864;SDS011;9058;52.018;4.202;2023-09-07T03:39:27;19.38;;;17.08;;
17864;SDS011;9058;52.018;4.202;2023-09-07T03:41:54;18.90;;;16.90;;
17864;SDS011;9058;52.018;4.202;2023-09-07T03:44:21;20.42;;;18.23;;
17864;SDS011;9058;52.018;4.202;2023-09-07T03:46:48;19.77;;;17.73;;
17864;SDS011;9058;52.018;4.202;2023-09-07T03:49:15;19.05;;;17.05;;
17864;SDS011;9058;52.018;4.202;2023-09-07T03:51:42;19.30;;;17.30;;
17864;SDS011;9058;52.018;4.202;2023-09-07T03:54:10;21.30;;;17.65;;
17864;SDS011;9058;52.018;4.202;2023-09-07T03:56:37;20.60;;;18.50;;
17864;SDS011;9058;52.018;4.202;2023-09-07T03:59:04;19.58;;;17.60;;
17864;SDS011;9058;52.018;4.202;2023-09-07T04:01:30;20.02;;;17.92;;
17864;SDS011;9058;52.018;4.202;2023-09-07T04:03:57;19.98;;;17.98;;
17864;SDS011;9058;52.018;4.202;2023-09-07T04:06:23;21.48;;;17.65;;
17864;SDS011;9058;52.018;4.202;2023-09-07T04:08:49;18.17;;;16.35;;
17864;SDS011;9058;52.018;4.202;2023-09-07T04:11:17;20.10;;;17.95;;
17864;SDS011;9058;52.018;4.202;2023-09-07T04:13:44;19.60;;;17.60;;
17864;SDS011;9058;52.018;4.202;2023-09-07T04:16:11;19.55;;;17.52;;
17864;SDS011;9058;52.018;4.202;2023-09-07T04:18:37;19.52;;;17.42;;
17864;SDS011;9058;52.018;4.202;2023-09-07T04:21:05;20.90;;;17.98;;
17864;SDS011;9058;52.018;4.202;2023-09-07T04:23:32;20.23;;;17.48;;
17864;SDS011;9058;52.018;4.202;2023-09-07T04:26:03;20.65;;;18.30;;
17864;SDS011;9058;52.018;4.202;2023-09-07T04:28:31;19.35;;;17.42;;
17864;SDS011;9058;52.018;4.202;2023-09-07T04:30:57;20.40;;;18.25;;
17864;SDS011;9058;52.018;4.202;2023-09-07T04:33:24;21.88;;;19.00;;
17864;SDS011;9058;52.018;4.202;2023-09-07T04:35:50;20.35;;;18.25;;
17864;SDS011;9058;52.018;4.202;2023-09-07T04:38:16;19.80;;;17.77;;
17864;SDS011;9058;52.018;4.202;2023-09-07T04:40:43;24.80;;;19.05;;
17864;SDS011;9058;52.018;4.202;2023-09-07T04:43:09;22.98;;;18.90;;
17864;SDS011;9058;52.018;4.202;2023-09-07T04:45:37;23.40;;;20.23;;
17864;SDS011;9058;52.018;4.202;2023-09-07T04:48:11;22.85;;;18.88;;
17864;SDS011;9058;52.018;4.202;2023-09-07T04:50:37;22.42;;;19.55;;
17864;SDS011;9058;52.018;4.202;2023-09-07T04:53:05;23.15;;;20.75;;
17864;SDS011;9058;52.018;4.202;2023-09-07T04:55:31;22.38;;;20.08;;
17864;SDS011;9058;52.018;4.202;2023-09-07T04:57:57;24.23;;;20.98;;
17864;SDS011;9058;52.018;4.202;2023-09-07T05:00:23;25.20;;;22.30;;
17864;SDS011;9058;52.018;4.202;2023-09-07T05:02:51;24.52;;;21.48;;
17864;SDS011;9058;52.018;4.202;2023-09-07T05:05:17;24.23;;;21.65;;
17864;SDS011;9058;52.018;4.202;2023-09-07T05:07:44;23.35;;;20.80;;
17864;SDS011;9058;52.018;4.202;2023-09-07T05:10:10;25.08;;;22.33;;
17864;SDS011;9058;52.018;4.202;2023-09-07T05:12:38;27.35;;;22.33;;
17864;SDS011;9058;52.018;4.202;2023-09-07T05:15:05;24.20;;;21.65;;
17864;SDS011;9058;52.018;4.202;2023-09-07T05:17:32;24.40;;;21.45;;
17864;SDS011;9058;52.018;4.202;2023-09-07T05:20:01;25.63;;;22.10;;
17864;SDS011;9058;52.018;4.202;2023-09-07T05:22:28;23.83;;;21.42;;
17864;SDS011;9058;52.018;4.202;2023-09-07T05:24:55;25.02;;;21.42;;
17864;SDS011;9058;52.018;4.202;2023-09-07T05:27:21;24.70;;;22.02;;
17864;SDS011;9058;52.018;4.202;2023-09-07T05:29:47;24.88;;;21.23;;
17864;SDS011;9058;52.018;4.202;2023-09-07T05:32:13;23.20;;;20.60;;
17864;SDS011;9058;52.018;4.202;2023-09-07T05:34:41;25.40;;;22.40;;
17864;SDS011;9058;52.018;4.202;2023-09-07T05:37:09;24.10;;;20.27;;
17864;SDS011;9058;52.018;4.202;2023-09-07T05:39:35;23.17;;;20.70;;
17864;SDS011;9058;52.018;4.202;2023-09-07T05:42:01;24.25;;;20.75;;
17864;SDS011;9058;52.018;4.202;2023-09-07T05:44:28;22.58;;;19.90;;
17864;SDS011;9058;52.018;4.202;2023-09-07T05:46:54;22.00;;;18.95;;
17864;SDS011;9058;52.018;4.202;2023-09-07T05:49:20;21.67;;;19.38;;
17864;SDS011;9058;52.018;4.202;2023-09-07T05:51:47;23.02;;;19.77;;
17864;SDS011;9058;52.018;4.202;2023-09-07T05:54:14;21.27;;;19.02;;
17864;SDS011;9058;52.018;4.202;2023-09-07T05:56:41;20.60;;;18.50;;
17864;SDS011;9058;52.018;4.202;2023-09-07T05:59:07;20.63;;;18.63;;
17864;SDS011;9058;52.018;4.202;2023-09-07T06:01:33;20.02;;;17.42;;
17864;SDS011;9058;52.018;4.202;2023-09-07T06:04:00;20.20;;;18.02;;
17864;SDS011;9058;52.018;4.202;2023-09-07T06:06:27;20.15;;;17.83;;
17864;SDS011;9058;52.018;4.202;2023-09-07T06:08:53;19.45;;;17.45;;
17864;SDS011;9058;52.018;4.202;2023-09-07T06:11:21;23.08;;;18.52;;
17864;SDS011;9058;52.018;4.202;2023-09-07T06:13:48;18.10;;;16.10;;
17864;SDS011;9058;52.018;4.202;2023-09-07T06:16:14;18.00;;;16.17;;
17864;SDS011;9058;52.018;4.202;2023-09-07T06:18:40;20.48;;;17.20;;
17864;SDS011;9058;52.018;4.202;2023-09-07T06:21:07;18.80;;;16.80;;
17864;SDS011;9058;52.018;4.202;2023-09-07T06:23:33;18.85;;;16.05;;
17864;SDS011;9058;52.018;4.202;2023-09-07T06:25:59;21.75;;;16.23;;
17864;SDS011;9058;52.018;4.202;2023-09-07T06:28:27;17.08;;;15.27;;
17864;SDS011;9058;52.018;4.202;2023-09-07T06:30:53;20.42;;;16.20;;
17864;SDS011;9058;52.018;4.202;2023-09-07T06:33:20;18.08;;;16.30;;
17864;SDS011;9058;52.018;4.202;2023-09-07T06:35:46;19.92;;;16.33;;
17864;SDS011;9058;52.018;4.202;2023-09-07T06:38:13;18.48;;;16.55;;
17864;SDS011;9058;52.018;4.202;2023-09-07T06:40:39;18.00;;;15.27;;
17864;SDS011;9058;52.018;4.202;2023-09-07T06:43:05;21.90;;;15.35;;
17864;SDS011;9058;52.018;4.202;2023-09-07T06:45:35;20.23;;;15.82;;
17864;SDS011;9058;52.018;4.202;2023-09-07T06:48:02;17.60;;;15.00;;
17864;SDS011;9058;52.018;4.202;2023-09-07T06:50:28;17.10;;;15.30;;
17864;SDS011;9058;52.018;4.202;2023-09-07T06:52:54;16.73;;;14.80;;
17864;SDS011;9058;52.018;4.202;2023-09-07T06:55:21;19.55;;;15.02;;
17864;SDS011;9058;52.018;4.202;2023-09-07T06:57:47;17.50;;;14.27;;
17864;SDS011;9058;52.018;4.202;2023-09-07T07:00:14;19.10;;;14.55;;
17864;SDS011;9058;52.018;4.202;2023-09-07T07:02:42;18.27;;;16.15;;
17864;SDS011;9058;52.018;4.202;2023-09-07T07:05:08;17.52;;;15.40;;
17864;SDS011;9058;52.018;4.202;2023-09-07T07:07:34;16.17;;;14.50;;
17864;SDS011;9058;52.018;4.202;2023-09-07T07:10:01;16.73;;;14.65;;
17864;SDS011;9058;52.018;4.202;2023-09-07T07:12:28;19.48;;;15.57;;
17864;SDS011;9058;52.018;4.202;2023-09-07T07:14:54;17.10;;;14.90;;
17864;SDS011;9058;52.018;4.202;2023-09-07T07:17:21;17.52;;;14.63;;
17864;SDS011;9058;52.018;4.202;2023-09-07T07:19:49;15.30;;;13.73;;
17864;SDS011;9058;52.018;4.202;2023-09-07T07:22:15;15.95;;;14.27;;
17864;SDS011;9058;52.018;4.202;2023-09-07T07:24:42;15.27;;;13.77;;
17864;SDS011;9058;52.018;4.202;2023-09-07T07:27:08;15.57;;;13.90;;
17864;SDS011;9058;52.018;4.202;2023-09-07T07:29:36;15.52;;;13.77;;
17864;SDS011;9058;52.018;4.202;2023-09-07T07:32:02;17.30;;;13.98;;
17864;SDS011;9058;52.018;4.202;2023-09-07T07:34:29;15.45;;;13.80;;
17864;SDS011;9058;52.018;4.202;2023-09-07T07:36:56;16.02;;;13.98;;
17864;SDS011;9058;52.018;4.202;2023-09-07T07:39:23;15.18;;;13.70;;
17864;SDS011;9058;52.018;4.202;2023-09-07T07:41:49;14.32;;;12.93;;
17864;SDS011;9058;52.018;4.202;2023-09-07T07:44:15;15.57;;;11.85;;
17864;SDS011;9058;52.018;4.202;2023-09-07T07:46:42;13.77;;;12.38;;
17864;SDS011;9058;52.018;4.202;2023-09-07T07:49:09;15.88;;;12.82;;
17864;SDS011;9058;52.018;4.202;2023-09-07T07:51:36;14.65;;;13.10;;
17864;SDS011;9058;52.018;4.202;2023-09-07T07:54:04;14.63;;;12.40;;
17864;SDS011;9058;52.018;4.202;2023-09-07T07:56:30;13.32;;;12.00;;
17864;SDS011;9058;52.018;4.202;2023-09-07T07:58:57;12.90;;;11.68;;
17864;SDS011;9058;52.018;4.202;2023-09-07T08:01:23;13.57;;;12.10;;
17864;SDS011;9058;52.018;4.202;2023-09-07T08:03:51;13.77;;;12.07;;
17864;SDS011;9058;52.018;4.202;2023-09-07T08:06:18;12.25;;;10.80;;
17864;SDS011;9058;52.018;4.202;2023-09-07T08:08:44;13.32;;;10.80;;
17864;SDS011;9058;52.018;4.202;2023-09-07T08:11:12;12.10;;;10.57;;
17864;SDS011;9058;52.018;4.202;2023-09-07T08:13:39;12.10;;;9.73;;
17864;SDS011;9058;52.018;4.202;2023-09-07T08:16:06;12.55;;;10.82;;
17864;SDS011;9058;52.018;4.202;2023-09-07T08:18:32;14.80;;;10.55;;
17864;SDS011;9058;52.018;4.202;2023-09-07T08:20:59;11.02;;;9.65;;
17864;SDS011;9058;52.018;4.202;2023-09-07T08:23:25;10.52;;;8.98;;
17864;SDS011;9058;52.018;4.202;2023-09-07T08:25:52;10.30;;;9.18;;
17864;SDS011;9058;52.018;4.202;2023-09-07T08:28:20;9.63;;;8.65;;
17864;SDS011;9058;52.018;4.202;2023-09-07T08:30:48;10.75;;;8.10;;
17864;SDS011;9058;52.018;4.202;2023-09-07T08:33:14;11.40;;;7.90;;
17864;SDS011;9058;52.018;4.202;2023-09-07T08:35:41;8.80;;;7.90;;
17864;SDS011;9058;52.018;4.202;2023-09-07T08:38:09;9.43;;;7.75;;
17864;SDS011;9058;52.018;4.202;2023-09-07T08:40:35;8.95;;;8.05;;
17864;SDS011;9058;52.018;4.202;2023-09-07T08:43:03;11.60;;;7.82;;
17864;SDS011;9058;52.018;4.202;2023-09-07T08:45:31;13.52;;;7.45;;
17864;SDS011;9058;52.018;4.202;2023-09-07T08:47:59;8.80;;;7.90;;
17864;SDS011;9058;52.018;4.202;2023-09-07T08:50:25;9.68;;;6.82;;
17864;SDS011;9058;52.018;4.202;2023-09-07T08:52:52;8.60;;;7.63;;
17864;SDS011;9058;52.018;4.202;2023-09-07T08:55:19;9.85;;;7.78;;
17864;SDS011;9058;52.018;4.202;2023-09-07T08:57:46;8.55;;;7.65;;
17864;SDS011;9058;52.018;4.202;2023-09-07T09:00:12;7.75;;;7.05;;
17864;SDS011;9058;52.018;4.202;2023-09-07T09:02:42;8.05;;;7.20;;
17864;SDS011;9058;52.018;4.202;2023-09-07T09:05:09;9.40;;;7.25;;
17864;SDS011;9058;52.018;4.202;2023-09-07T09:07:35;7.72;;;7.03;;
17864;SDS011;9058;52.018;4.202;2023-09-07T09:10:02;8.23;;;6.70;;
17864;SDS011;9058;52.018;4.202;2023-09-07T09:12:45;10.68;;;6.85;;
17864;SDS011;9058;52.018;4.202;2023-09-07T09:15:12;11.38;;;7.25;;
17864;SDS011;9058;52.018;4.202;2023-09-07T09:17:38;8.07;;;6.60;;
17864;SDS011;9058;52.018;4.202;2023-09-07T09:20:06;7.82;;;6.80;;
17864;SDS011;9058;52.018;4.202;2023-09-07T09:22:45;11.77;;;6.88;;
17864;SDS011;9058;52.018;4.202;2023-09-07T09:25:12;8.30;;;6.20;;
17864;SDS011;9058;52.018;4.202;2023-09-07T09:27:38;7.93;;;6.45;;
17864;SDS011;9058;52.018;4.202;2023-09-07T09:30:06;6.78;;;5.68;;
17864;SDS011;9058;52.018;4.202;2023-09-07T09:32:32;8.63;;;6.38;;
17864;SDS011;9058;52.018;4.202;2023-09-07T09:34:59;6.95;;;6.25;;
17864;SDS011;9058;52.018;4.202;2023-09-07T09:37:29;8.88;;;5.70;;
17864;SDS011;9058;52.018;4.202;2023-09-07T09:39:55;6.85;;;6.05;;
17864;SDS011;9058;52.018;4.202;2023-09-07T09:42:22;6.82;;;5.20;;
17864;SDS011;9058;52.018;4.202;2023-09-07T09:44:49;7.63;;;5.60;;
17864;SDS011;9058;52.018;4.202;2023-09-07T09:47:16;7.60;;;5.90;;
17864;SDS011;9058;52.018;4.202;2023-09-07T09:49:43;8.68;;;5.35;;
17864;SDS011;9058;52.018;4.202;2023-09-07T09:52:10;8.23;;;6.22;;
17864;SDS011;9058;52.018;4.202;2023-09-07T09:54:39;6.70;;;5.82;;
17864;SDS011;9058;52.018;4.202;2023-09-07T09:57:06;12.80;;;5.30;;
17864;SDS011;9058;52.018;4.202;2023-09-07T09:59:32;8.35;;;4.82;;
17864;SDS011;9058;52.018;4.202;2023-09-07T10:01:59;6.57;;;4.90;;
17864;SDS011;9058;52.018;4.202;2023-09-07T10:04:26;8.85;;;4.82;;
17864;SDS011;9058;52.018;4.202;2023-09-07T10:06:55;5.30;;;4.80;;
17864;SDS011;9058;52.018;4.202;2023-09-07T10:09:22;5.57;;;4.10;;
17864;SDS011;9058;52.018;4.202;2023-09-07T10:11:53;7.22;;;4.60;;
17864;SDS011;9058;52.018;4.202;2023-09-07T10:14:20;7.35;;;4.90;;
17864;SDS011;9058;52.018;4.202;2023-09-07T10:16:47;7.40;;;4.80;;
17864;SDS011;9058;52.018;4.202;2023-09-07T10:19:14;5.35;;;4.68;;
17864;SDS011;9058;52.018;4.202;2023-09-07T10:21:41;8.68;;;5.35;;
17864;SDS011;9058;52.018;4.202;2023-09-07T10:24:08;7.50;;;4.32;;
17864;SDS011;9058;52.018;4.202;2023-09-07T10:26:35;8.65;;;5.07;;
17864;SDS011;9058;52.018;4.202;2023-09-07T10:29:05;9.00;;;4.97;;
17864;SDS011;9058;52.018;4.202;2023-09-07T10:31:31;5.32;;;4.20;;
17864;SDS011;9058;52.018;4.202;2023-09-07T10:34:07;11.45;;;5.25;;
17864;SDS011;9058;52.018;4.202;2023-09-07T10:36:33;7.03;;;5.00;;
17864;SDS011;9058;52.018;4.202;2023-09-07T10:39:02;4.90;;;4.43;;
17864;SDS011;9058;52.018;4.202;2023-09-07T10:41:39;6.90;;;4.30;;
17864;SDS011;9058;52.018;4.202;2023-09-07T10:44:07;7.75;;;5.38;;
17864;SDS011;9058;52.018;4.202;2023-09-07T10:46:35;4.70;;;4.22;;
17864;SDS011;9058;52.018;4.202;2023-09-07T10:49:03;7.28;;;4.35;;
17864;SDS011;9058;52.018;4.202;2023-09-07T10:51:29;9.65;;;4.78;;
17864;SDS011;9058;52.018;4.202;2023-09-07T10:53:55;6.68;;;4.38;;
17864;SDS011;9058;52.018;4.202;2023-09-07T10:56:24;6.43;;;4.70;;
17864;SDS011;9058;52.018;4.202;2023-09-07T10:58:50;5.10;;;4.43;;
17864;SDS011;9058;52.018;4.202;2023-09-07T11:01:20;5.57;;;4.85;;
17864;SDS011;9058;52.018;4.202;2023-09-07T11:03:47;8.75;;;4.38;;
17864;SDS011;9058;52.018;4.202;2023-09-07T11:06:14;8.10;;;4.85;;
17864;SDS011;9058;52.018;4.202;2023-09-07T11:08:41;6.63;;;4.78;;
17864;SDS011;9058;52.018;4.202;2023-09-07T11:11:08;5.93;;;4.40;;
17864;SDS011;9058;52.018;4.202;2023-09-07T11:13:34;7.70;;;4.15;;
17864;SDS011;9058;52.018;4.202;2023-09-07T11:16:01;6.38;;;4.68;;
17864;SDS011;9058;52.018;4.202;2023-09-07T11:18:29;6.60;;;4.32;;
17864;SDS011;9058;52.018;4.202;2023-09-07T11:20:56;5.32;;;3.83;;
17864;SDS011;9058;52.018;4.202;2023-09-07T11:23:24;6.95;;;3.80;;
17864;SDS011;9058;52.018;4.202;2023-09-07T11:25:51;5.40;;;3.70;;
17864;SDS011;9058;52.018;4.202;2023-09-07T11:28:17;5.18;;;4.05;;
17864;SDS011;9058;52.018;4.202;2023-09-07T11:30:48;7.25;;;4.18;;
17864;SDS011;9058;52.018;4.202;2023-09-07T11:33:15;4.60;;;4.18;;
17864;SDS011;9058;52.018;4.202;2023-09-07T11:35:43;4.90;;;4.03;;
17864;SDS011;9058;52.018;4.202;2023-09-07T11:38:12;5.38;;;3.85;;
17864;SDS011;9058;52.018;4.202;2023-09-07T11:40:39;8.68;;;3.63;;
17864;SDS011;9058;52.018;4.202;2023-09-07T11:43:08;4.18;;;3.47;;
17864;SDS011;9058;52.018;4.202;2023-09-07T11:45:34;4.80;;;3.25;;
17864;SDS011;9058;52.018;4.202;2023-09-07T11:48:00;4.82;;;3.38;;
17864;SDS011;9058;52.018;4.202;2023-09-07T11:50:27;5.00;;;3.83;;
17864;SDS011;9058;52.018;4.202;2023-09-07T11:52:56;5.47;;;3.70;;
17864;SDS011;9058;52.018;4.202;2023-09-07T11:55:22;6.38;;;3.78;;
17864;SDS011;9058;52.018;4.202;2023-09-07T11:57:49;5.18;;;3.75;;
17864;SDS011;9058;52.018;4.202;2023-09-07T12:00:17;6.78;;;3.80;;
17864;SDS011;9058;52.018;4.202;2023-09-07T12:02:43;5.70;;;3.53;;
17864;SDS011;9058;52.018;4.202;2023-09-07T12:05:10;4.18;;;3.78;;
17864;SDS011;9058;52.018;4.202;2023-09-07T12:07:39;6.97;;;3.75;;
17864;SDS011;9058;52.018;4.202;2023-09-07T12:10:08;4.55;;;3.70;;
17864;SDS011;9058;52.018;4.202;2023-09-07T12:12:36;5.50;;;3.55;;
17864;SDS011;9058;52.018;4.202;2023-09-07T12:15:02;4.88;;;3.58;;
17864;SDS011;9058;52.018;4.202;2023-09-07T12:17:29;7.10;;;3.78;;
17864;SDS011;9058;52.018;4.202;2023-09-07T12:19:55;5.70;;;3.90;;
17864;SDS011;9058;52.018;4.202;2023-09-07T12:22:22;5.10;;;4.00;;
17864;SDS011;9058;52.018;4.202;2023-09-07T12:24:49;4.40;;;3.92;;
17864;SDS011;9058;52.018;4.202;2023-09-07T12:27:17;4.25;;;3.83;;
17864;SDS011;9058;52.018;4.202;2023-09-07T12:29:44;4.97;;;4.03;;
17864;SDS011;9058;52.018;4.202;2023-09-07T12:32:11;4.18;;;3.65;;
17864;SDS011;9058;52.018;4.202;2023-09-07T12:34:38;5.40;;;3.65;;
17864;SDS011;9058;52.018;4.202;2023-09-07T12:37:05;3.80;;;3.38;;
17864;SDS011;9058;52.018;4.202;2023-09-07T12:39:31;4.43;;;3.40;;
17864;SDS011;9058;52.018;4.202;2023-09-07T12:41:58;6.28;;;3.70;;
17864;SDS011;9058;52.018;4.202;2023-09-07T12:44:28;3.75;;;3.42;;
17864;SDS011;9058;52.018;4.202;2023-09-07T12:46:54;5.20;;;3.72;;
17864;SDS011;9058;52.018;4.202;2023-09-07T12:49:21;4.63;;;3.38;;
17864;SDS011;9058;52.018;4.202;2023-09-07T12:51:47;4.57;;;3.67;;
17864;SDS011;9058;52.018;4.202;2023-09-07T12:54:14;5.25;;;3.75;;
17864;SDS011;9058;52.018;4.202;2023-09-07T12:56:41;6.03;;;3.40;;
17864;SDS011;9058;52.018;4.202;2023-09-07T12:59:08;5.65;;;3.42;;
17864;SDS011;9058;52.018;4.202;2023-09-07T13:01:36;6.03;;;3.15;;
17864;SDS011;9058;52.018;4.202;2023-09-07T13:04:03;6.60;;;3.65;;
17864;SDS011;9058;52.018;4.202;2023-09-07T13:06:29;4.43;;;3.28;;
17864;SDS011;9058;52.018;4.202;2023-09-07T13:08:57;5.35;;;3.40;;
17864;SDS011;9058;52.018;4.202;2023-09-07T13:11:23;4.78;;;3.20;;
17864;SDS011;9058;52.018;4.202;2023-09-07T13:13:49;4.97;;;2.97;;
17864;SDS011;9058;52.018;4.202;2023-09-07T13:16:17;7.90;;;2.97;;
17864;SDS011;9058;52.018;4.202;2023-09-07T13:18:49;3.95;;;3.42;;
17864;SDS011;9058;52.018;4.202;2023-09-07T13:21:15;6.00;;;3.47;;
17864;SDS011;9058;52.018;4.202;2023-09-07T13:23:42;3.90;;;2.63;;
17864;SDS011;9058;52.018;4.202;2023-09-07T13:26:11;3.22;;;2.92;;
17864;SDS011;9058;52.018;4.202;2023-09-07T13:28:38;4.30;;;3.60;;
17864;SDS011;9058;52.018;4.202;2023-09-07T13:31:04;4.18;;;3.35;;
17864;SDS011;9058;52.018;4.202;2023-09-07T13:33:30;3.60;;;3.30;;
17864;SDS011;9058;52.018;4.202;2023-09-07T13:35:59;3.85;;;3.40;;
17864;SDS011;9058;52.018;4.202;2023-09-07T13:38:25;5.07;;;3.20;;
17864;SDS011;9058;52.018;4.202;2023-09-07T13:40:51;3.35;;;2.85;;
17864;SDS011;9058;52.018;4.202;2023-09-07T13:43:18;5.55;;;3.08;;
17864;SDS011;9058;52.018;4.202;2023-09-07T13:45:44;3.33;;;2.78;;
17864;SDS011;9058;52.018;4.202;2023-09-07T13:48:11;8.93;;;3.00;;
17864;SDS011;9058;52.018;4.202;2023-09-07T13:50:38;5.50;;;3.20;;
17864;SDS011;9058;52.018;4.202;2023-09-07T13:53:06;4.22;;;3.10;;
17864;SDS011;9058;52.018;4.202;2023-09-07T13:55:33;5.18;;;3.30;;
17864;SDS011;9058;52.018;4.202;2023-09-07T13:58:00;4.30;;;3.13;;
17864;SDS011;9058;52.018;4.202;2023-09-07T14:00:27;6.82;;;3.15;;
17864;SDS011;9058;52.018;4.202;2023-09-07T14:02:53;5.65;;;3.70;;
17864;SDS011;9058;52.018;4.202;2023-09-07T14:05:20;3.78;;;2.78;;
17864;SDS011;9058;52.018;4.202;2023-09-07T14:07:46;2.85;;;2.65;;
17864;SDS011;9058;52.018;4.202;2023-09-07T14:10:15;3.45;;;3.15;;
17864;SDS011;9058;52.018;4.202;2023-09-07T14:12:41;3.47;;;3.13;;
17864;SDS011;9058;52.018;4.202;2023-09-07T14:15:09;3.40;;;2.85;;
17864;SDS011;9058;52.018;4.202;2023-09-07T14:17:35;5.47;;;3.20;;
17864;SDS011;9058;52.018;4.202;2023-09-07T14:20:02;4.43;;;2.67;;
17864;SDS011;9058;52.018;4.202;2023-09-07T14:22:29;3.97;;;3.05;;
17864;SDS011;9058;52.018;4.202;2023-09-07T14:24:55;6.43;;;3.53;;
17864;SDS011;9058;52.018;4.202;2023-09-07T14:27:23;3.80;;;3.40;;
17864;SDS011;9058;52.018;4.202;2023-09-07T14:29:51;6.00;;;3.50;;
17864;SDS011;9058;52.018;4.202;2023-09-07T14:32:17;10.13;;;3.80;;
17864;SDS011;9058;52.018;4.202;2023-09-07T14:34:44;4.15;;;2.85;;
17864;SDS011;9058;52.018;4.202;2023-09-07T14:37:10;5.97;;;3.35;;
17864;SDS011;9058;52.018;4.202;2023-09-07T14:39:37;3.97;;;3.42;;
17864;SDS011;9058;52.018;4.202;2023-09-07T14:42:04;5.32;;;3.38;;
17864;SDS011;9058;52.018;4.202;2023-09-07T14:44:37;5.00;;;3.30;;
17864;SDS011;9058;52.018;4.202;2023-09-07T14:47:04;5.63;;;3.53;;